Time;durP1;ratioP1;P1;durP2;ratioP2;P2;SDS_P1;SDS_P2;PMS_P1;PMS_P2;Temp;Humidity;BMP_temperature;BMP_pressure;BME280_temperature;BME280_humidity;BME280_pressure;Samples;Min_cycle;Max_cycle;Signal;HPM_P1;HPM_P2
2024/01/29 00:00:16;;;;;;;7.07;3.10;;;4.20;99.90;;;;;;6312921;22;20479;-33
2024/01/29 00:02:44;;;;;;;6.80;2.60;;;4.30;99.90;;;;;;6286956;22;20019;-32
2024/01/29 00:05:10;;;;;;;6.78;2.40;;;4.40;99.90;;;;;;6286382;22;20094;-32
2024/01/29 00:07:35;;;;;;;5.03;2.50;;;4.40;99.90;;;;;;6287666;22;20050;-32
2024/01/29 00:10:01;;;;;;;4.22;2.70;;;4.40;99.90;;;;;;6339907;22;20045;-33
2024/01/29 00:12:27;;;;;;;6.75;2.83;;;4.30;99.90;;;;;;6312271;22;20015;-32
2024/01/29 00:14:52;;;;;;;6.75;3.03;;;4.20;99.90;;;;;;6261743;22;20026;-33
2024/01/29 00:17:18;;;;;;;7.97;2.78;;;4.30;99.90;;;;;;6340943;22;20022;-32
2024/01/29 00:19:44;;;;;;;7.68;2.45;;;4.20;99.90;;;;;;6312133;22;20015;-32
2024/01/29 00:22:10;;;;;;;7.22;3.05;;;4.20;99.90;;;;;;6339803;22;20089;-32
2024/01/29 00:24:35;;;;;;;7.95;2.97;;;4.10;99.90;;;;;;6339745;22;20053;-33
2024/01/29 00:27:01;;;;;;;4.25;2.75;;;3.90;99.90;;;;;;6311952;22;20015;-32
2024/01/29 00:29:27;;;;;;;5.28;2.70;;;3.70;99.90;;;;;;6340581;22;20089;-33
2024/01/29 00:31:53;;;;;;;6.80;3.00;;;3.60;99.90;;;;;;6312092;22;20318;-32
2024/01/29 00:34:19;;;;;;;5.50;3.10;;;3.50;99.90;;;;;;6339708;22;20309;-32
2024/01/29 00:36:45;;;;;;;5.38;3.28;;;3.30;99.90;;;;;;6339676;22;20422;-32
2024/01/29 00:39:13;;;;;;;6.10;3.42;;;3.30;99.90;;;;;;6312124;22;20072;-31
2024/01/29 00:41:39;;;;;;;5.10;2.88;;;3.10;99.90;;;;;;6312589;22;20007;-31
2024/01/29 00:44:04;;;;;;;5.68;2.92;;;3.00;99.90;;;;;;6339160;22;20046;-34
2024/01/29 00:46:30;;;;;;;6.30;3.08;;;2.90;99.90;;;;;;6339703;22;20007;-32
2024/01/29 00:48:56;;;;;;;5.10;2.60;;;2.90;99.90;;;;;;6339644;22;20310;-34
2024/01/29 00:51:22;;;;;;;8.65;3.42;;;2.80;99.90;;;;;;6311914;22;20101;-32
2024/01/29 00:53:47;;;;;;;5.90;3.28;;;2.70;99.90;;;;;;6311978;22;20011;-32
2024/01/29 00:56:13;;;;;;;7.32;4.43;;;2.70;99.90;;;;;;6340239;22;20042;-32
2024/01/29 00:58:43;;;;;;;5.72;3.00;;;2.60;99.90;;;;;;6339533;22;20422;-32
2024/01/29 01:01:09;;;;;;;5.18;2.97;;;2.50;99.90;;;;;;6339871;22;20061;-31
2024/01/29 01:03:35;;;;;;;4.50;2.85;;;2.40;99.90;;;;;;6312916;22;20007;-32
2024/01/29 01:06:00;;;;;;;4.40;2.80;;;2.40;99.90;;;;;;6311971;22;20445;-32
2024/01/29 01:08:26;;;;;;;5.40;3.38;;;2.40;99.90;;;;;;6340179;22;20015;-32
2024/01/29 01:10:52;;;;;;;8.65;3.33;;;2.40;99.90;;;;;;6311835;22;20430;-32
2024/01/29 01:13:17;;;;;;;4.25;2.67;;;2.50;99.90;;;;;;6340145;22;20086;-32
2024/01/29 01:15:43;;;;;;;5.13;3.17;;;2.50;99.90;;;;;;6339456;22;20422;-32
2024/01/29 01:18:09;;;;;;;6.88;3.58;;;2.40;99.90;;;;;;6312069;22;20010;-33
2024/01/29 01:20:35;;;;;;;6.78;3.45;;;2.40;99.90;;;;;;6286118;22;20011;-32
2024/01/29 01:23:01;;;;;;;5.00;3.22;;;2.30;99.90;;;;;;6339443;22;20085;-32
2024/01/29 01:25:27;;;;;;;5.63;3.00;;;2.30;99.90;;;;;;6312491;22;20013;-32
2024/01/29 01:27:53;;;;;;;5.63;3.10;;;2.20;99.90;;;;;;6286344;22;20053;-31
2024/01/29 01:30:23;;;;;;;6.13;3.30;;;2.20;99.90;;;;;;6313051;22;20078;-32
2024/01/29 01:32:49;;;;;;;7.87;3.20;;;2.20;99.90;;;;;;6339412;22;20037;-32
2024/01/29 01:35:15;;;;;;;9.15;3.50;;;2.20;99.90;;;;;;6311860;22;20011;-31
2024/01/29 01:37:41;;;;;;;8.03;3.60;;;2.10;99.90;;;;;;6339408;22;20029;-32
2024/01/29 01:40:08;;;;;;;6.82;3.40;;;2.10;99.90;;;;;;6312289;22;20011;-32
2024/01/29 01:42:33;;;;;;;5.33;3.00;;;2.10;99.90;;;;;;6311350;22;20011;-31
2024/01/29 01:44:59;;;;;;;7.37;3.53;;;2.00;99.90;;;;;;6312197;22;20014;-33
2024/01/29 01:47:25;;;;;;;7.40;3.80;;;2.00;99.90;;;;;;6311405;22;20010;-31
2024/01/29 01:49:51;;;;;;;5.85;3.15;;;2.00;99.90;;;;;;6340037;22;20049;-32
2024/01/29 01:52:18;;;;;;;5.97;3.13;;;2.10;99.90;;;;;;6312635;22;20314;-32
2024/01/29 01:54:44;;;;;;;7.07;3.20;;;2.30;99.90;;;;;;6311665;22;20037;-31
2024/01/29 01:57:10;;;;;;;9.17;3.40;;;2.20;99.90;;;;;;6286843;22;20015;-32
2024/01/29 01:59:38;;;;;;;7.67;3.67;;;2.20;99.90;;;;;;6341066;22;20018;-31
2024/01/29 02:02:05;;;;;;;6.63;3.58;;;2.10;99.90;;;;;;6314192;22;20291;-32
2024/01/29 02:04:30;;;;;;;6.57;3.07;;;2.30;99.90;;;;;;6314496;22;20085;-32
2024/01/29 02:06:58;;;;;;;10.73;3.37;;;1.90;99.90;;;;;;6313626;22;20342;-33
2024/01/29 02:09:24;;;;;;;6.80;3.07;;;1.80;99.90;;;;;;6340972;22;20093;-31
2024/01/29 02:11:50;;;;;;;7.43;3.40;;;1.70;99.90;;;;;;6288016;22;20011;-32
2024/01/29 02:14:16;;;;;;;6.10;3.23;;;1.70;99.90;;;;;;6341653;22;20010;-32
2024/01/29 02:16:42;;;;;;;5.50;3.55;;;1.70;99.90;;;;;;6313297;22;20097;-34
2024/01/29 02:19:15;;;;;;;5.85;3.33;;;1.60;99.90;;;;;;6313913;22;20017;-32
2024/01/29 02:21:41;;;;;;;;;;;1.60;99.90;;;;;;6341773;22;20011;-32
2024/01/29 02:24:07;;;;;;;5.07;3.03;;;1.60;99.90;;;;;;6313421;22;19997;-31
2024/01/29 02:26:33;;;;;;;7.57;3.27;;;1.70;99.90;;;;;;6340794;22;20059;-31
2024/01/29 02:28:58;;;;;;;7.83;3.83;;;1.60;99.90;;;;;;6314070;22;20007;-31
2024/01/29 02:31:24;;;;;;;8.30;3.43;;;1.70;99.90;;;;;;6314065;22;20010;-32
2024/01/29 02:33:50;;;;;;;6.77;3.27;;;1.70;99.90;;;;;;6313164;22;20050;-33
2024/01/29 02:36:16;;;;;;;5.33;3.30;;;1.80;99.90;;;;;;6340688;22;20022;-32
2024/01/29 02:38:45;;;;;;;7.53;3.57;;;1.80;99.90;;;;;;6341380;22;20014;-31
2024/01/29 02:41:11;;;;;;;6.70;3.47;;;1.70;99.90;;;;;;6288434;22;20067;-32
2024/01/29 02:43:36;;;;;;;5.77;3.70;;;1.70;99.90;;;;;;6340823;22;20019;-32
2024/01/29 02:46:02;;;;;;;5.57;3.40;;;1.60;99.90;;;;;;6340576;22;20007;-32
2024/01/29 02:48:28;;;;;;;6.83;3.40;;;1.50;99.90;;;;;;6313113;22;20418;-32
2024/01/29 02:50:53;;;;;;;7.37;4.23;;;1.50;99.90;;;;;;6340540;22;20430;-31
2024/01/29 02:53:20;;;;;;;6.03;3.20;;;1.50;99.90;;;;;;6340610;22;20015;-33
2024/01/29 02:55:45;;;;;;;8.00;4.00;;;1.50;99.90;;;;;;6314028;22;20021;-32
2024/01/29 02:58:11;;;;;;;7.47;3.80;;;1.50;99.90;;;;;;6287304;22;20093;-32
2024/01/29 03:00:37;;;;;;;7.37;3.80;;;1.40;99.90;;;;;;6313079;22;20022;-32
2024/01/29 03:03:03;;;;;;;6.97;3.57;;;1.40;99.90;;;;;;6340473;22;20011;-32
2024/01/29 03:05:28;;;;;;;6.60;4.07;;;1.40;99.90;;;;;;6340728;22;20081;-32
2024/01/29 03:07:54;;;;;;;6.23;3.60;;;1.40;99.90;;;;;;6313716;22;20111;-31
2024/01/29 03:10:21;;;;;;;6.63;3.70;;;1.50;99.90;;;;;;6287241;22;20116;-31
2024/01/29 03:12:46;;;;;;;6.13;3.57;;;1.40;99.90;;;;;;6312864;22;20053;-32
2024/01/29 03:15:13;;;;;;;8.40;4.20;;;1.50;99.90;;;;;;6287104;22;20019;-32
2024/01/29 03:17:38;;;;;;;6.87;4.10;;;1.60;99.90;;;;;;6287903;22;20018;-31
2024/01/29 03:20:05;;;;;;;4.97;3.60;;;1.60;99.90;;;;;;6312723;22;20019;-31
2024/01/29 03:22:31;;;;;;;6.70;3.60;;;1.60;99.90;;;;;;6340322;22;20014;-31
2024/01/29 03:24:56;;;;;;;8.17;3.90;;;1.60;99.90;;;;;;6312264;22;20014;-33
2024/01/29 03:27:22;;;;;;;6.43;3.77;;;1.60;99.90;;;;;;6313315;22;20049;-34
2024/01/29 03:29:48;;;;;;;7.27;4.10;;;1.60;99.90;;;;;;6339874;22;20071;-33
2024/01/29 03:32:13;;;;;;;8.33;4.47;;;1.60;99.90;;;;;;6340883;22;20021;-32
2024/01/29 03:34:43;;;;;;;6.87;4.10;;;1.60;99.90;;;;;;6341250;22;20007;-31
2024/01/29 03:37:08;;;;;;;6.87;4.43;;;1.60;99.90;;;;;;6313067;22;20097;-31
2024/01/29 03:39:34;;;;;;;7.27;4.30;;;1.60;99.90;;;;;;6237258;22;20046;-32
2024/01/29 03:42:00;;;;;;;7.57;4.13;;;1.70;99.90;;;;;;6287535;22;20042;-31
2024/01/29 03:44:26;;;;;;;8.83;4.60;;;1.90;99.90;;;;;;6312176;22;20017;-31
2024/01/29 03:46:52;;;;;;;8.50;4.13;;;2.00;99.90;;;;;;6339648;22;20457;-31
2024/01/29 03:49:18;;;;;;;11.33;4.20;;;2.10;99.90;;;;;;6340120;22;20015;-31
2024/01/29 03:51:44;;;;;;;7.33;4.30;;;2.10;99.90;;;;;;6312161;22;20019;-31
2024/01/29 03:54:09;;;;;;;10.17;4.03;;;2.00;99.90;;;;;;6340422;22;20046;-31
2024/01/29 03:56:35;;;;;;;9.63;4.63;;;2.10;99.90;;;;;;6312614;22;20132;-31
2024/01/29 03:59:02;;;;;;;7.77;3.87;;;1.90;99.90;;;;;;6312941;22;20025;-33
2024/01/29 04:01:28;;;;;;;6.00;3.53;;;2.10;99.90;;;;;;6312400;22;20011;-33
2024/01/29 04:03:54;;;;;;;6.77;4.13;;;2.00;99.90;;;;;;6312316;22;20089;-32
2024/01/29 04:06:20;;;;;;;6.38;3.90;;;2.00;99.90;;;;;;6313368;22;20089;-31
2024/01/29 04:08:45;;;;;;;6.30;3.72;;;2.10;99.90;;;;;;6339965;22;20050;-32
2024/01/29 04:11:11;;;;;;;7.00;4.05;;;2.10;99.90;;;;;;6339961;22;20021;-31
2024/01/29 04:13:37;;;;;;;8.55;4.40;;;2.00;99.90;;;;;;6339928;22;20026;-31
2024/01/29 04:16:03;;;;;;;8.93;4.83;;;1.90;99.90;;;;;;6312288;22;20023;-31
2024/01/29 04:18:30;;;;;;;11.75;4.30;;;1.70;99.90;;;;;;6312151;22;20033;-31
2024/01/29 04:20:56;;;;;;;8.93;3.95;;;1.60;99.90;;;;;;6312093;22;20006;-31
2024/01/29 04:23:22;;;;;;;8.50;4.37;;;1.50;99.90;;;;;;6286606;22;20407;-31
2024/01/29 04:25:47;;;;;;;7.63;4.23;;;1.40;99.90;;;;;;6340446;22;20302;-32
2024/01/29 04:28:13;;;;;;;7.40;4.10;;;1.40;99.90;;;;;;6312171;22;20011;-32
2024/01/29 04:30:39;;;;;;;8.33;4.57;;;1.30;99.90;;;;;;6339752;22;20046;-31
2024/01/29 04:33:05;;;;;;;6.83;5.10;;;1.30;99.90;;;;;;6339807;22;20099;-31
2024/01/29 04:35:30;;;;;;;6.77;3.73;;;1.20;99.90;;;;;;6312232;22;20006;-33
2024/01/29 04:37:56;;;;;;;7.45;4.45;;;1.20;99.90;;;;;;6339775;22;20010;-32
2024/01/29 04:40:22;;;;;;;8.57;4.90;;;1.20;99.90;;;;;;6340090;22;20445;-31
2024/01/29 04:42:49;;;;;;;8.83;4.90;;;1.20;99.90;;;;;;6311981;22;20015;-31
2024/01/29 04:45:15;;;;;;;10.23;5.05;;;1.20;99.90;;;;;;6339740;22;20007;-31
2024/01/29 04:47:40;;;;;;;10.13;4.97;;;1.20;99.90;;;;;;6312097;22;20098;-31
2024/01/29 04:50:06;;;;;;;9.70;5.00;;;1.20;99.90;;;;;;6286190;22;20017;-31
2024/01/29 04:52:32;;;;;;;9.77;4.83;;;1.30;99.90;;;;;;6286558;22;20018;-31
2024/01/29 04:54:58;;;;;;;8.77;4.37;;;1.20;99.90;;;;;;6340668;22;20433;-31
2024/01/29 04:57:24;;;;;;;6.80;4.43;;;1.30;99.90;;;;;;6286347;22;20020;-32
2024/01/29 04:59:50;;;;;;;8.97;5.37;;;1.30;99.90;;;;;;6311953;22;20555;-32
2024/01/29 05:02:16;;;;;;;8.00;4.97;;;1.30;99.90;;;;;;6311950;22;20075;-31
2024/01/29 05:04:42;;;;;;;8.77;5.17;;;1.40;99.90;;;;;;6339402;22;20014;-32
2024/01/29 05:07:08;;;;;;;10.90;4.97;;;1.40;99.90;;;;;;6339504;22;20010;-31
2024/01/29 05:09:34;;;;;;;8.73;4.40;;;1.50;99.90;;;;;;6311694;22;20017;-31
2024/01/29 05:11:59;;;;;;;9.37;5.00;;;1.50;99.90;;;;;;6339463;22;20052;-32
2024/01/29 05:14:27;;;;;;;9.10;5.00;;;1.50;99.90;;;;;;6311823;22;20015;-31
2024/01/29 05:16:52;;;;;;;8.67;5.33;;;1.50;99.90;;;;;;6286590;22;20334;-31
2024/01/29 05:19:19;;;;;;;14.67;5.33;;;1.70;99.90;;;;;;6340117;22;20014;-32
2024/01/29 05:21:47;;;;;;;9.98;5.35;;;1.80;99.90;;;;;;6311935;22;20011;-32
2024/01/29 05:24:13;;;;;;;8.63;5.55;;;2.00;99.90;;;;;;6311682;22;20007;-31
2024/01/29 05:26:39;;;;;;;7.10;4.50;;;2.20;99.90;;;;;;6339357;22;20011;-31
2024/01/29 05:29:04;;;;;;;8.50;4.75;;;2.30;99.90;;;;;;6339742;22;20064;-32
2024/01/29 05:31:30;;;;;;;10.88;5.03;;;2.30;99.90;;;;;;6341037;22;20456;-31
2024/01/29 05:33:56;;;;;;;7.80;4.38;;;2.40;99.90;;;;;;6341335;22;20046;-31
2024/01/29 05:36:22;;;;;;;10.80;4.82;;;2.30;99.90;;;;;;6313843;22;20019;-31
2024/01/29 05:38:47;;;;;;;9.20;4.85;;;2.30;99.90;;;;;;6314001;22;20072;-31
2024/01/29 05:41:13;;;;;;;10.23;4.57;;;2.20;99.90;;;;;;6341344;22;20018;-34
2024/01/29 05:43:39;;;;;;;11.15;5.28;;;2.20;99.90;;;;;;6340672;22;20434;-31
2024/01/29 05:46:04;;;;;;;6.45;4.57;;;2.30;99.90;;;;;;6341805;22;20072;-32
2024/01/29 05:48:30;;;;;;;8.27;4.75;;;2.30;99.90;;;;;;6340838;22;20010;-31
2024/01/29 05:50:56;;;;;;;8.20;5.22;;;2.20;99.90;;;;;;6341189;22;20046;-32
2024/01/29 05:53:22;;;;;;;9.95;5.43;;;2.20;99.90;;;;;;6341849;22;20222;-32
2024/01/29 05:55:48;;;;;;;9.35;4.97;;;2.10;99.90;;;;;;6313746;22;20011;-32
2024/01/29 05:58:14;;;;;;;7.68;5.72;;;2.00;99.90;;;;;;6341097;22;20010;-32
2024/01/29 06:00:40;;;;;;;9.20;4.90;;;2.00;99.90;;;;;;6313935;22;20010;-30
2024/01/29 06:03:06;;;;;;;6.72;4.70;;;1.90;99.90;;;;;;6341142;22;20517;-32
2024/01/29 06:05:31;;;;;;;11.15;5.82;;;2.00;99.90;;;;;;6341204;22;20306;-31
2024/01/29 06:07:57;;;;;;;8.35;5.38;;;2.00;99.90;;;;;;6313667;22;20014;-31
2024/01/29 06:10:23;;;;;;;9.48;5.38;;;2.10;99.90;;;;;;6340610;22;20038;-32
2024/01/29 06:12:49;;;;;;;10.50;5.15;;;2.10;99.90;;;;;;6314482;22;20046;-31
2024/01/29 06:15:14;;;;;;;8.65;5.78;;;2.20;99.90;;;;;;6340928;22;20445;-31
2024/01/29 06:17:40;;;;;;;9.10;4.80;;;2.30;99.90;;;;;;6341275;22;20346;-31
2024/01/29 06:20:07;;;;;;;8.52;5.15;;;2.40;99.90;;;;;;6313663;22;20299;-31
2024/01/29 06:22:33;;;;;;;11.32;5.57;;;2.50;99.90;;;;;;6340842;22;20050;-31
2024/01/29 06:24:58;;;;;;;10.27;4.72;;;2.70;99.90;;;;;;6340747;22;20030;-31
2024/01/29 06:27:24;;;;;;;9.95;5.65;;;2.60;99.90;;;;;;6340791;22;20434;-31
2024/01/29 06:29:50;;;;;;;8.15;4.95;;;2.60;99.90;;;;;;6313223;22;20018;-30
2024/01/29 06:32:16;;;;;;;8.07;5.50;;;2.60;99.90;;;;;;6313601;22;20014;-32
2024/01/29 06:34:42;;;;;;;8.85;5.18;;;2.60;99.90;;;;;;6340777;22;20042;-31
2024/01/29 06:37:07;;;;;;;7.68;5.47;;;2.60;99.90;;;;;;6340730;22;20116;-32
2024/01/29 06:39:33;;;;;;;9.73;5.57;;;2.60;99.90;;;;;;6314226;22;20038;-32
2024/01/29 06:41:59;;;;;;;12.27;5.43;;;2.80;99.90;;;;;;6313051;22;20017;-31
2024/01/29 06:44:25;;;;;;;9.97;5.97;;;2.50;99.90;;;;;;6312495;22;20053;-31
2024/01/29 06:46:51;;;;;;;9.67;5.77;;;2.50;99.90;;;;;;6313311;22;20011;-31
2024/01/29 06:49:30;;;;;;;8.38;4.90;;;2.60;99.90;;;;;;6313175;22;20015;-32
2024/01/29 06:51:56;;;;;;;8.60;5.22;;;2.30;99.90;;;;;;6341262;22;20031;-31
2024/01/29 06:54:21;;;;;;;10.20;5.78;;;2.30;99.90;;;;;;6261824;22;20414;-32
2024/01/29 06:56:47;;;;;;;10.75;6.00;;;2.40;99.90;;;;;;6313274;22;20094;-31
2024/01/29 06:59:16;;;;;;;9.20;5.50;;;2.20;99.90;;;;;;6340464;22;20057;-31
2024/01/29 07:01:42;;;;;;;8.60;5.70;;;2.10;99.90;;;;;;6340116;22;20015;-32
2024/01/29 07:04:08;;;;;;;8.25;5.90;;;2.00;99.90;;;;;;6312826;22;20017;-31
2024/01/29 07:06:33;;;;;;;9.85;5.82;;;2.00;99.90;;;;;;6312975;22;20015;-32
2024/01/29 07:08:59;;;;;;;11.23;6.23;;;1.90;99.90;;;;;;6340461;22;20127;-30
2024/01/29 07:11:25;;;;;;;10.23;6.18;;;1.90;99.90;;;;;;6340298;22;20053;-31
2024/01/29 07:13:51;;;;;;;11.55;6.55;;;1.80;99.90;;;;;;6287306;22;20006;-32
2024/01/29 07:16:16;;;;;;;9.77;6.45;;;1.80;99.90;;;;;;6312958;22;20011;-32
2024/01/29 07:18:42;;;;;;;11.80;6.67;;;1.80;99.90;;;;;;6341376;22;20491;-32
2024/01/29 07:21:11;;;;;;;8.93;6.05;;;1.90;99.90;;;;;;6312864;22;20319;-32
2024/01/29 07:23:37;;;;;;;13.30;6.67;;;1.90;99.90;;;;;;6313214;22;20482;-31
2024/01/29 07:26:03;;;;;;;12.30;6.60;;;2.00;99.90;;;;;;6313361;22;20015;-31
2024/01/29 07:28:29;;;;;;;11.93;6.20;;;2.00;99.90;;;;;;6340307;22;20291;-32
2024/01/29 07:30:54;;;;;;;9.18;5.68;;;2.10;99.90;;;;;;6313275;22;20067;-31
2024/01/29 07:33:20;;;;;;;10.50;6.45;;;2.20;99.90;;;;;;6286612;22;20014;-31
2024/01/29 07:35:46;;;;;;;10.02;6.07;;;2.30;99.90;;;;;;6340255;22;20010;-32
2024/01/29 07:38:12;;;;;;;12.00;6.80;;;2.40;99.90;;;;;;6312717;22;20007;-31
2024/01/29 07:40:37;;;;;;;9.25;5.88;;;2.40;99.90;;;;;;6340567;22;20033;-31
2024/01/29 07:43:03;;;;;;;9.82;6.15;;;2.50;99.90;;;;;;6312118;22;20049;-31
2024/01/29 07:45:29;;;;;;;9.95;6.90;;;2.50;99.90;;;;;;6340070;22;20426;-32
2024/01/29 07:47:55;;;;;;;11.23;6.50;;;2.50;99.90;;;;;;6340837;22;20079;-31
2024/01/29 07:50:21;;;;;;;12.38;7.18;;;2.50;99.90;;;;;;6340390;22;20023;-31
2024/01/29 07:52:47;;;;;;;12.55;6.80;;;2.50;99.90;;;;;;6312869;22;20067;-31
2024/01/29 07:55:12;;;;;;;11.85;6.97;;;2.60;99.90;;;;;;6339983;22;20322;-32
2024/01/29 07:57:38;;;;;;;10.23;6.78;;;2.50;99.90;;;;;;6313463;22;20015;-31
2024/01/29 08:00:05;;;;;;;11.23;7.35;;;2.50;99.90;;;;;;6340723;22;20042;-31
2024/01/29 08:02:31;;;;;;;13.38;7.72;;;2.50;99.90;;;;;;6339905;22;20094;-32
2024/01/29 08:04:57;;;;;;;13.27;7.78;;;2.50;99.90;;;;;;6339760;22;20042;-32
2024/01/29 08:07:23;;;;;;;12.10;7.32;;;2.60;99.90;;;;;;6340955;22;20018;-32
2024/01/29 08:09:48;;;;;;;11.98;6.55;;;2.60;99.90;;;;;;6286649;22;20038;-31
2024/01/29 08:12:14;;;;;;;8.73;5.90;;;2.70;99.90;;;;;;6339866;22;20441;-31
2024/01/29 08:14:40;;;;;;;10.30;6.90;;;2.80;99.90;;;;;;6286520;22;20014;-32
2024/01/29 08:17:06;;;;;;;12.93;6.68;;;2.80;99.90;;;;;;6339871;22;20011;-32
2024/01/29 08:19:32;;;;;;;12.77;6.75;;;2.90;99.90;;;;;;6313209;22;20437;-32
2024/01/29 08:21:58;;;;;;;13.27;8.27;;;3.00;99.90;;;;;;6339831;22;20011;-31
2024/01/29 08:24:24;;;;;;;11.90;6.45;;;3.10;99.90;;;;;;6286558;22;20086;-31
2024/01/29 08:26:50;;;;;;;12.75;7.45;;;3.20;99.90;;;;;;6312126;22;20045;-31
2024/01/29 08:29:16;;;;;;;11.57;7.82;;;3.30;99.90;;;;;;6312228;22;20014;-31
2024/01/29 08:31:42;;;;;;;9.93;6.82;;;3.40;99.90;;;;;;6312214;22;20010;-31
2024/01/29 08:34:07;;;;;;;10.60;6.82;;;3.40;99.90;;;;;;6312020;22;20103;-32
2024/01/29 08:36:33;;;;;;;12.15;6.85;;;3.40;99.90;;;;;;6339748;22;20011;-32
2024/01/29 08:38:59;;;;;;;11.88;6.97;;;3.40;99.90;;;;;;6339715;22;20011;-30
2024/01/29 08:41:24;;;;;;;10.60;7.32;;;3.50;99.90;;;;;;6312213;22;20036;-32
2024/01/29 08:43:50;;;;;;;11.75;7.45;;;3.50;99.90;;;;;;6339313;22;20014;-32
2024/01/29 08:46:16;;;;;;;10.35;7.28;;;3.50;99.90;;;;;;6313019;22;20054;-31
2024/01/29 08:48:42;;;;;;;11.75;7.18;;;3.60;99.90;;;;;;6339728;22;20087;-31
2024/01/29 08:51:08;;;;;;;11.65;7.70;;;3.70;99.90;;;;;;6339627;22;20011;-31
2024/01/29 08:53:34;;;;;;;10.10;7.10;;;3.60;99.90;;;;;;6286348;22;20017;-32
2024/01/29 08:56:00;;;;;;;12.40;7.18;;;3.60;99.90;;;;;;6339637;22;20013;-30
2024/01/29 08:58:25;;;;;;;10.48;6.97;;;3.60;99.90;;;;;;6339700;22;20014;-31
2024/01/29 09:00:54;;;;;;;13.57;7.50;;;3.60;99.90;;;;;;6311862;22;20046;-32
2024/01/29 09:03:20;;;;;;;10.82;6.40;;;3.60;99.90;;;;;;6286188;22;20018;-31
2024/01/29 09:05:47;;;;;;;10.70;7.60;;;3.70;99.90;;;;;;6311535;22;20071;-31
2024/01/29 09:08:14;;;;;;;10.60;7.32;;;3.70;99.90;;;;;;6311892;22;20365;-31
2024/01/29 09:10:40;;;;;;;11.18;7.32;;;3.70;99.90;;;;;;6312149;22;20018;-31
2024/01/29 09:13:06;;;;;;;12.75;7.78;;;3.70;99.90;;;;;;6340224;22;20022;-32
2024/01/29 09:15:32;;;;;;;12.30;7.90;;;3.80;99.90;;;;;;6285718;22;20082;-32
2024/01/29 09:17:57;;;;;;;12.18;7.80;;;3.80;99.90;;;;;;6311847;22;20014;-31
2024/01/29 09:20:23;;;;;;;12.35;7.93;;;3.90;99.90;;;;;;6339814;22;20072;-32
2024/01/29 09:22:49;;;;;;;11.48;7.90;;;3.90;99.90;;;;;;6339489;22;20449;-32
2024/01/29 09:25:14;;;;;;;12.32;7.75;;;4.00;99.90;;;;;;6340020;22;20086;-30
2024/01/29 09:27:40;;;;;;;11.93;8.27;;;4.00;99.90;;;;;;6339338;22;20022;-31
2024/01/29 09:30:06;;;;;;;12.30;7.80;;;4.10;99.90;;;;;;6312097;22;20097;-31
2024/01/29 09:32:32;;;;;;;12.07;7.82;;;4.20;99.90;;;;;;6312013;22;20026;-31
2024/01/29 09:34:58;;;;;;;9.77;7.47;;;4.20;99.90;;;;;;6339689;22;20011;-31
2024/01/29 09:37:23;;;;;;;11.20;7.85;;;4.40;99.90;;;;;;6339346;22;20007;-31
2024/01/29 09:39:50;;;;;;;11.73;7.75;;;4.30;99.90;;;;;;6339391;22;20076;-31
2024/01/29 09:42:20;;;;;;;15.65;8.02;;;4.30;99.90;;;;;;6285924;22;20025;-31
2024/01/29 09:44:47;;;;;;;12.02;7.90;;;4.40;99.90;;;;;;6311691;22;20015;-31
2024/01/29 09:47:14;;;;;;;12.25;7.55;;;4.50;99.90;;;;;;6311739;22;20014;-30
2024/01/29 09:49:42;;;;;;;12.07;8.90;;;4.60;99.90;;;;;;6312057;22;20053;-31
2024/01/29 09:52:13;;;;;;;12.60;7.57;;;4.90;99.90;;;;;;6339273;22;20007;-32
2024/01/29 09:54:40;;;;;;;12.48;7.68;;;4.90;99.90;;;;;;6338786;22;20317;-32
2024/01/29 09:57:09;;;;;;;12.90;8.68;;;4.90;99.90;;;;;;6340353;22;20011;-31
2024/01/29 09:59:35;;;;;;;14.82;7.63;;;5.10;99.90;;;;;;6339191;22;20015;-31
2024/01/29 10:02:03;;;;;;;11.40;7.88;;;5.00;99.90;;;;;;6339314;22;20015;-31
2024/01/29 10:04:29;;;;;;;10.80;7.75;;;5.00;99.90;;;;;;6312483;22;20017;-30
2024/01/29 10:06:54;;;;;;;11.68;8.07;;;5.10;99.90;;;;;;6311577;22;20378;-31
2024/01/29 10:09:20;;;;;;;14.05;8.15;;;5.20;99.90;;;;;;6286210;22;20057;-31
2024/01/29 10:11:46;;;;;;;12.73;8.27;;;5.30;99.90;;;;;;6339091;22;20082;-32
2024/01/29 10:14:12;;;;;;;10.57;7.90;;;5.40;99.90;;;;;;6339084;22;20022;-31
2024/01/29 10:16:38;;;;;;;12.50;8.32;;;5.40;99.90;;;;;;6285887;22;20103;-31
2024/01/29 10:19:04;;;;;;;14.23;8.25;;;5.60;99.90;;;;;;6341300;22;20018;-31
2024/01/29 10:21:42;;;;;;;14.45;8.73;;;5.60;99.90;;;;;;6313246;22;20003;-32
2024/01/29 10:24:16;;;;;;;12.88;7.95;;;5.70;99.90;;;;;;6313270;22;20006;-31
2024/01/29 10:26:45;;;;;;;12.00;8.05;;;5.80;99.90;;;;;;6341864;22;20034;-31
2024/01/29 10:29:12;;;;;;;14.70;8.65;;;5.90;99.90;;;;;;6340747;22;20010;-30
2024/01/29 10:31:38;;;;;;;15.20;8.93;;;6.00;99.90;;;;;;6340354;22;20442;-31
2024/01/29 10:34:05;;;;;;;14.18;8.80;;;6.10;99.90;;;;;;6314123;22;20011;-32
2024/01/29 10:36:31;;;;;;;15.18;8.93;;;6.10;99.90;;;;;;6340822;22;20431;-31
2024/01/29 10:39:00;;;;;;;17.50;9.65;;;6.20;99.90;;;;;;6341451;22;20011;-32
2024/01/29 10:41:26;;;;;;;13.32;9.07;;;6.20;99.90;;;;;;6340625;22;20430;-31
2024/01/29 10:43:52;;;;;;;16.98;9.15;;;6.20;99.90;;;;;;6340691;22;20426;-31
2024/01/29 10:46:22;;;;;;;17.90;10.15;;;6.20;99.90;;;;;;6341535;22;20011;-31
2024/01/29 10:48:50;;;;;;;14.90;10.68;;;6.30;99.90;;;;;;6288321;22;20014;-31
2024/01/29 10:51:17;;;;;;;18.27;10.00;;;6.40;99.90;;;;;;6341619;22;20011;-31
2024/01/29 10:53:44;;;;;;;19.02;10.35;;;6.40;99.90;;;;;;6340864;22;20053;-31
2024/01/29 10:56:11;;;;;;;20.13;10.27;;;6.40;99.90;;;;;;6340558;22;20068;-32
2024/01/29 10:58:38;;;;;;;20.75;10.40;;;6.40;99.90;;;;;;6313877;22;20022;-31
2024/01/29 11:01:05;;;;;;;17.58;10.38;;;6.40;99.90;;;;;;6313096;22;20042;-32
2024/01/29 11:03:35;;;;;;;18.83;10.45;;;6.50;99.90;;;;;;6287236;22;20010;-31
2024/01/29 11:06:23;;;;;;;23.85;11.10;;;6.50;99.90;;;;;;6313888;22;20011;-33
2024/01/29 11:08:55;;;;;;;18.70;10.43;;;6.60;99.90;;;;;;6313424;22;20017;-32
2024/01/29 11:11:23;;;;;;;19.58;10.90;;;6.60;99.90;;;;;;6341528;22;20014;-31
2024/01/29 11:13:49;;;;;;;16.83;9.65;;;6.70;99.90;;;;;;6312895;22;20007;-30
2024/01/29 11:16:16;;;;;;;18.45;11.60;;;6.60;99.90;;;;;;6287083;22;20014;-32
2024/01/29 11:18:42;;;;;;;16.90;10.80;;;6.60;99.90;;;;;;6340286;22;20042;-31
2024/01/29 11:21:14;;;;;;;15.32;9.32;;;6.60;99.90;;;;;;6313073;22;20011;-31
2024/01/29 11:23:44;;;;;;;16.83;9.63;;;6.50;99.90;;;;;;6340366;22;20080;-31
2024/01/29 11:26:15;;;;;;;16.60;10.55;;;6.60;99.90;;;;;;6339779;22;20411;-32
2024/01/29 11:28:41;;;;;;;17.80;10.57;;;6.60;99.90;;;;;;6312911;22;20397;-30
2024/01/29 11:31:12;;;;;;;21.17;9.90;;;6.50;99.90;;;;;;6338423;22;20018;-30
2024/01/29 11:33:38;;;;;;;16.13;9.10;;;6.60;99.90;;;;;;6286817;22;20021;-31
2024/01/29 11:36:11;;;;;;;22.33;11.35;;;6.60;99.90;;;;;;6340547;22;20090;-32
2024/01/29 11:38:38;;;;;;;18.60;10.75;;;6.70;99.90;;;;;;6313849;22;20015;-31
2024/01/29 11:41:03;;;;;;;16.77;10.50;;;6.80;99.90;;;;;;6340838;22;20060;-30
2024/01/29 11:43:29;;;;;;;20.40;11.27;;;6.70;99.90;;;;;;6312595;22;20041;-31
2024/01/29 11:45:57;;;;;;;21.77;12.30;;;6.80;99.90;;;;;;6340299;22;20015;-31
2024/01/29 11:48:26;;;;;;;24.13;11.52;;;6.90;99.90;;;;;;6340069;22;20015;-31
2024/01/29 11:50:53;;;;;;;22.90;12.48;;;6.90;99.90;;;;;;6339661;22;20280;-31
2024/01/29 11:53:24;;;;;;;24.67;12.02;;;7.10;99.90;;;;;;6312671;22;20014;-30
2024/01/29 11:55:49;;;;;;;22.67;11.18;;;7.20;99.90;;;;;;6340910;22;20013;-31
2024/01/29 11:58:20;;;;;;;25.13;12.07;;;7.20;99.90;;;;;;6340074;22;20050;-31
2024/01/29 12:00:47;;;;;;;26.75;12.65;;;7.30;99.90;;;;;;6312446;22;20011;-30
2024/01/29 12:03:15;;;;;;;27.58;12.95;;;7.30;99.90;;;;;;6312460;22;20023;-32
2024/01/29 12:05:41;;;;;;;24.40;13.50;;;7.10;99.90;;;;;;6339909;22;20007;-31
2024/01/29 12:08:15;;;;;;;27.13;14.05;;;7.10;99.90;;;;;;6340041;22;20021;-32
2024/01/29 12:10:41;;;;;;;;;;;7.20;99.90;;;;;;6340798;22;20131;-31
2024/01/29 12:13:18;;;;;;;32.15;14.05;;;7.10;99.90;;;;;;6339889;22;19941;-31
2024/01/29 12:15:44;;;;;;;28.77;12.63;;;7.00;99.90;;;;;;6339983;22;20011;-31
2024/01/29 12:18:31;;;;;;;26.40;14.23;;;7.00;99.90;;;;;;6311686;22;20022;-31
2024/01/29 12:20:57;;;;;;;28.73;14.80;;;7.10;99.90;;;;;;6339279;22;20011;-29
2024/01/29 12:23:23;;;;;;;27.30;13.13;;;7.10;99.90;;;;;;6339714;22;20071;-30
2024/01/29 12:25:54;;;;;;;29.30;13.02;;;7.10;99.90;;;;;;6339420;22;20085;-31
2024/01/29 12:28:21;;;;;;;27.25;12.70;;;7.10;99.90;;;;;;6339533;22;20015;-30
2024/01/29 12:30:58;;;;;;;27.48;13.77;;;7.10;99.90;;;;;;6339711;22;20011;-32
2024/01/29 12:33:29;;;;;;;27.92;14.98;;;7.10;99.90;;;;;;6339711;22;20422;-32
2024/01/29 12:36:18;;;;;;;31.67;14.27;;;7.10;99.90;;;;;;6339855;22;20011;-30
2024/01/29 12:38:52;;;;;;;44.60;16.98;;;7.10;99.90;;;;;;6339850;22;20011;-31
2024/01/29 12:41:18;;;;;;;30.80;14.70;;;7.10;99.90;;;;;;6340152;22;20015;-30
2024/01/29 12:43:44;;;;;;;33.97;14.50;;;7.10;99.90;;;;;;6312022;22;20019;-30
2024/01/29 12:46:14;;;;;;;32.85;15.00;;;7.10;99.90;;;;;;6340211;22;20487;-31